createdAt,value
2023-03-29T00:00:32.164Z,21.3
2023-03-29T00:15:32.435Z,21.3
2023-03-29T00:30:32.446Z,21.3
2023-03-29T00:45:33.000Z,21.3
2023-03-29T01:00:32.652Z,21.2
2023-03-29T01:15:32.400Z,21.2
2023-03-29T01:30:32.543Z,21.2
2023-03-29T01:45:32.259Z,21.2
2023-03-29T02:00:32.609Z,21.2
2023-03-29T02:15:32.228Z,21.2
2023-03-29T02:30:32.272Z,21.1
2023-03-29T02:45:32.143Z,21.1
2023-03-29T03:00:32.723Z,21.1
2023-03-29T03:15:32.600Z,21.1
2023-03-29T03:30:32.804Z,21.1
2023-03-29T03:45:32.250Z,21.0
2023-03-29T04:00:33.620Z,21
2023-03-29T04:15:32.229Z,21
2023-03-29T04:30:32.469Z,21
2023-03-29T04:45:32.957Z,21
2023-03-29T05:00:32.746Z,21
2023-03-29T05:15:32.424Z,21
2023-03-29T05:30:32.807Z,21
2023-03-29T05:45:32.168Z,21.1
2023-03-29T06:00:34.269Z,21.2
2023-03-29T06:15:32.603Z,21.3
2023-03-29T06:30:33.578Z,21.4
2023-03-29T06:45:32.504Z,21.5
2023-03-29T07:00:36.383Z,21.6
2023-03-29T07:15:32.499Z,21.6
2023-03-29T07:30:35.142Z,21.7
2023-03-29T07:45:32.638Z,21.7
2023-03-29T08:00:34.717Z,21.8
2023-03-29T08:15:33.236Z,21.9
2023-03-29T08:30:34.614Z,22.0
2023-03-29T08:45:32.419Z,22
2023-03-29T09:00:34.521Z,22.1
2023-03-29T09:15:32.911Z,22.1
2023-03-29T09:30:36.061Z,22.1
2023-03-29T09:45:32.979Z,22.0
2023-03-29T10:00:35.988Z,22
2023-03-29T10:15:32.710Z,22
2023-03-29T10:30:33.804Z,22
2023-03-29T10:45:33.121Z,22
2023-03-29T11:00:34.554Z,22.0
2023-03-29T11:15:32.511Z,22.1
2023-03-29T11:30:33.892Z,22.1
2023-03-29T11:45:34.319Z,22.1
2023-03-29T12:00:37.556Z,22.1
2023-03-29T12:15:32.992Z,22.1
2023-03-29T12:30:34.379Z,22.1
2023-03-29T12:45:33.331Z,22.2
2023-03-29T13:00:33.902Z,22.3
2023-03-29T13:15:32.963Z,22.4
2023-03-29T13:30:34.700Z,22.4
2023-03-29T13:45:33.038Z,22.5
2023-03-29T14:00:33.207Z,22.5
2023-03-29T14:15:33.069Z,22.6
2023-03-29T14:30:34.141Z,22.6
2023-03-29T14:45:32.803Z,22.6
2023-03-29T15:00:34.815Z,22.6
2023-03-29T15:15:33.028Z,22.6
2023-03-29T15:30:34.008Z,22.6
2023-03-29T15:45:32.501Z,22.4
2023-03-29T16:00:38.936Z,22.4
2023-03-29T16:15:32.375Z,22.3
2023-03-29T16:30:33.544Z,22.3
2023-03-29T16:45:32.962Z,22.2
2023-03-29T17:00:36.708Z,22.2
2023-03-29T17:15:35.626Z,22.1
2023-03-29T17:30:33.708Z,22.1
2023-03-29T17:45:33.396Z,22.0
2023-03-29T18:00:34.511Z,22
2023-03-29T18:15:32.901Z,21.9
2023-03-29T18:30:34.470Z,21.9
2023-03-29T18:45:33.288Z,21.9
2023-03-29T19:00:35.105Z,21.9
2023-03-29T19:15:33.056Z,21.8
2023-03-29T19:30:33.002Z,21.8
2023-03-29T19:45:32.054Z,21.8
2023-03-29T20:00:32.792Z,21.7
2023-03-29T20:15:32.549Z,21.7
2023-03-29T20:30:33.111Z,21.6
2023-03-29T20:45:39.974Z,21.6
2023-03-29T21:00:33.287Z,21.6
2023-03-29T21:15:32.383Z,21.6
2023-03-29T21:30:32.673Z,21.6
2023-03-29T21:45:32.869Z,21.6
2023-03-29T22:00:33.484Z,21.7
2023-03-29T22:15:32.623Z,21.5
2023-03-29T22:30:32.143Z,21.5
2023-03-29T22:45:32.602Z,21.5
2023-03-29T23:00:32.149Z,21.4
2023-03-29T23:15:32.538Z,21.4
2023-03-29T23:30:32.667Z,21.4
2023-03-29T23:45:32.059Z,21.4
